sensor_id;sensor_type;location;lat;lon;timestamp;P1;durP1;ratioP1;P2;durP2;ratioP2
71759;SDS011;59919;48.112;16.280;2023-05-10T00:02:06;2.70;;;2.10;;
71759;SDS011;59919;48.112;16.280;2023-05-10T00:04:38;2.38;;;2.10;;
71759;SDS011;59919;48.112;16.280;2023-05-10T00:07:11;2.03;;;1.83;;
71759;SDS011;59919;48.112;16.280;2023-05-10T00:09:42;2.50;;;2.08;;
71759;SDS011;59919;48.112;16.280;2023-05-10T00:12:14;2.17;;;1.98;;
71759;SDS011;59919;48.112;16.280;2023-05-10T00:14:45;2.30;;;2.10;;
71759;SDS011;59919;48.112;16.280;2023-05-10T00:17:20;2.30;;;2.10;;
71759;SDS011;59919;48.112;16.280;2023-05-10T00:19:51;2.35;;;2.15;;
71759;SDS011;59919;48.112;16.280;2023-05-10T00:22:25;2.05;;;1.80;;
71759;SDS011;59919;48.112;16.280;2023-05-10T00:24:57;2.10;;;1.90;;
71759;SDS011;59919;48.112;16.280;2023-05-10T00:27:31;2.42;;;2.08;;
71759;SDS011;59919;48.112;16.280;2023-05-10T00:30:02;2.40;;;2.03;;
71759;SDS011;59919;48.112;16.280;2023-05-10T00:32:39;2.33;;;2.00;;
71759;SDS011;59919;48.112;16.280;2023-05-10T00:35:14;2.53;;;2.00;;
71759;SDS011;59919;48.112;16.280;2023-05-10T00:37:45;3.67;;;2.30;;
71759;SDS011;59919;48.112;16.280;2023-05-10T00:40:16;2.30;;;2.10;;
71759;SDS011;59919;48.112;16.280;2023-05-10T00:42:52;2.42;;;2.10;;
71759;SDS011;59919;48.112;16.280;2023-05-10T00:45:29;2.33;;;2.13;;
71759;SDS011;59919;48.112;16.280;2023-05-10T00:48:05;2.47;;;2.28;;
71759;SDS011;59919;48.112;16.280;2023-05-10T00:50:36;2.72;;;1.88;;
71759;SDS011;59919;48.112;16.280;2023-05-10T00:53:08;2.50;;;2.30;;
71759;SDS011;59919;48.112;16.280;2023-05-10T00:55:39;3.17;;;2.10;;
71759;SDS011;59919;48.112;16.280;2023-05-10T00:58:14;2.40;;;2.08;;
71759;SDS011;59919;48.112;16.280;2023-05-10T01:00:45;2.35;;;2.13;;
71759;SDS011;59919;48.112;16.280;2023-05-10T01:03:20;2.00;;;1.80;;
71759;SDS011;59919;48.112;16.280;2023-05-10T01:05:54;2.35;;;2.10;;
71759;SDS011;59919;48.112;16.280;2023-05-10T01:08:25;2.10;;;1.90;;
71759;SDS011;59919;48.112;16.280;2023-05-10T01:10:57;2.30;;;2.10;;
71759;SDS011;59919;48.112;16.280;2023-05-10T01:13:35;1.80;;;1.65;;
71759;SDS011;59919;48.112;16.280;2023-05-10T01:16:08;2.30;;;2.10;;
71759;SDS011;59919;48.112;16.280;2023-05-10T01:18:40;2.30;;;2.10;;
71759;SDS011;59919;48.112;16.280;2023-05-10T01:26:45;2.17;;;1.98;;
71759;SDS011;59919;48.112;16.280;2023-05-10T01:35:32;2.42;;;2.10;;
71759;SDS011;59919;48.112;16.280;2023-05-10T01:38:32;2.38;;;1.92;;
71759;SDS011;59919;48.112;16.280;2023-05-10T01:41:14;2.58;;;1.90;;
71759;SDS011;59919;48.112;16.280;2023-05-10T01:46:36;2.25;;;2.00;;
71759;SDS011;59919;48.112;16.280;2023-05-10T01:49:14;2.28;;;1.92;;
71759;SDS011;59919;48.112;16.280;2023-05-10T01:51:54;2.25;;;1.98;;
71759;SDS011;59919;48.112;16.280;2023-05-10T01:54:31;2.08;;;1.88;;
71759;SDS011;59919;48.112;16.280;2023-05-10T01:57:05;2.63;;;1.90;;
71759;SDS011;59919;48.112;16.280;2023-05-10T01:59:43;2.03;;;1.83;;
71759;SDS011;59919;48.112;16.280;2023-05-10T02:02:19;1.85;;;1.73;;
71759;SDS011;59919;48.112;16.280;2023-05-10T02:04:53;2.20;;;2.00;;
71759;SDS011;59919;48.112;16.280;2023-05-10T02:07:27;2.33;;;2.10;;
71759;SDS011;59919;48.112;16.280;2023-05-10T02:10:00;2.00;;;1.83;;
71759;SDS011;59919;48.112;16.280;2023-05-10T02:12:43;1.92;;;1.73;;
71759;SDS011;59919;48.112;16.280;2023-05-10T02:15:25;2.10;;;1.90;;
71759;SDS011;59919;48.112;16.280;2023-05-10T02:18:08;2.20;;;2.00;;
71759;SDS011;59919;48.112;16.280;2023-05-10T02:20:43;3.38;;;2.17;;
71759;SDS011;59919;48.112;16.280;2023-05-10T02:23:19;2.13;;;1.83;;
71759;SDS011;59919;48.112;16.280;2023-05-10T02:25:53;2.30;;;1.95;;
71759;SDS011;59919;48.112;16.280;2023-05-10T02:28:29;2.33;;;1.90;;
71759;SDS011;59919;48.112;16.280;2023-05-10T02:31:02;2.55;;;1.77;;
71759;SDS011;59919;48.112;16.280;2023-05-10T02:33:34;2.10;;;1.90;;
71759;SDS011;59919;48.112;16.280;2023-05-10T02:36:08;1.92;;;1.80;;
71759;SDS011;59919;48.112;16.280;2023-05-10T02:38:41;2.10;;;1.90;;
71759;SDS011;59919;48.112;16.280;2023-05-10T02:41:16;2.55;;;2.22;;
71759;SDS011;59919;48.112;16.280;2023-05-10T02:43:50;2.35;;;2.15;;
71759;SDS011;59919;48.112;16.280;2023-05-10T02:46:26;2.10;;;1.90;;
71759;SDS011;59919;48.112;16.280;2023-05-10T02:48:57;2.10;;;1.90;;
71759;SDS011;59919;48.112;16.280;2023-05-10T02:51:35;2.08;;;1.88;;
71759;SDS011;59919;48.112;16.280;2023-05-10T02:54:27;1.80;;;1.70;;
71759;SDS011;59919;48.112;16.280;2023-05-10T02:57:04;2.20;;;2.00;;
71759;SDS011;59919;48.112;16.280;2023-05-10T02:59:36;2.00;;;1.80;;
71759;SDS011;59919;48.112;16.280;2023-05-10T03:02:12;2.33;;;2.10;;
71759;SDS011;59919;48.112;16.280;2023-05-10T03:04:46;2.30;;;2.10;;
71759;SDS011;59919;48.112;16.280;2023-05-10T03:07:20;2.65;;;2.20;;
71759;SDS011;59919;48.112;16.280;2023-05-10T03:09:53;2.75;;;2.13;;
71759;SDS011;59919;48.112;16.280;2023-05-10T03:15:22;2.78;;;2.20;;
71759;SDS011;59919;48.112;16.280;2023-05-10T03:18:09;2.30;;;2.10;;
71759;SDS011;59919;48.112;16.280;2023-05-10T03:20:47;2.60;;;2.20;;
71759;SDS011;59919;48.112;16.280;2023-05-10T03:23:26;2.38;;;2.17;;
71759;SDS011;59919;48.112;16.280;2023-05-10T03:26:04;3.55;;;2.30;;
71759;SDS011;59919;48.112;16.280;2023-05-10T03:28:44;2.17;;;1.98;;
71759;SDS011;59919;48.112;16.280;2023-05-10T03:31:18;2.58;;;2.20;;
71759;SDS011;59919;48.112;16.280;2023-05-10T03:33:50;4.10;;;1.90;;
71759;SDS011;59919;48.112;16.280;2023-05-10T03:36:23;2.10;;;1.90;;
71759;SDS011;59919;48.112;16.280;2023-05-10T03:39:00;2.50;;;2.00;;
71759;SDS011;59919;48.112;16.280;2023-05-10T03:41:34;2.38;;;2.17;;
71759;SDS011;59919;48.112;16.280;2023-05-10T03:44:05;2.50;;;2.10;;
71759;SDS011;59919;48.112;16.280;2023-05-10T03:46:36;2.50;;;2.13;;
71759;SDS011;59919;48.112;16.280;2023-05-10T03:49:07;2.50;;;1.90;;
71759;SDS011;59919;48.112;16.280;2023-05-10T03:51:38;2.47;;;2.28;;
71759;SDS011;59919;48.112;16.280;2023-05-10T03:54:10;2.35;;;2.15;;
71759;SDS011;59919;48.112;16.280;2023-05-10T03:56:43;2.33;;;2.08;;
71759;SDS011;59919;48.112;16.280;2023-05-10T03:59:18;2.78;;;2.13;;
71759;SDS011;59919;48.112;16.280;2023-05-10T04:01:54;2.17;;;1.90;;
71759;SDS011;59919;48.112;16.280;2023-05-10T04:04:25;2.33;;;2.13;;
71759;SDS011;59919;48.112;16.280;2023-05-10T04:06:59;2.42;;;2.10;;
71759;SDS011;59919;48.112;16.280;2023-05-10T04:09:35;2.25;;;1.90;;
71759;SDS011;59919;48.112;16.280;2023-05-10T04:12:08;2.70;;;1.95;;
71759;SDS011;59919;48.112;16.280;2023-05-10T04:14:40;2.35;;;2.10;;
71759;SDS011;59919;48.112;16.280;2023-05-10T04:17:14;2.17;;;1.98;;
71759;SDS011;59919;48.112;16.280;2023-05-10T04:19:48;2.33;;;1.90;;
71759;SDS011;59919;48.112;16.280;2023-05-10T04:22:19;2.38;;;1.98;;
71759;SDS011;59919;48.112;16.280;2023-05-10T04:24:51;2.20;;;2.00;;
71759;SDS011;59919;48.112;16.280;2023-05-10T04:27:25;2.50;;;2.00;;
71759;SDS011;59919;48.112;16.280;2023-05-10T04:29:56;2.38;;;1.90;;
71759;SDS011;59919;48.112;16.280;2023-05-10T04:32:27;2.03;;;1.83;;
71759;SDS011;59919;48.112;16.280;2023-05-10T04:35:01;2.30;;;2.10;;
71759;SDS011;59919;48.112;16.280;2023-05-10T04:37:34;2.75;;;2.30;;
71759;SDS011;59919;48.112;16.280;2023-05-10T04:40:08;2.30;;;2.10;;
71759;SDS011;59919;48.112;16.280;2023-05-10T04:42:40;2.50;;;1.85;;
71759;SDS011;59919;48.112;16.280;2023-05-10T04:45:12;2.35;;;2.15;;
71759;SDS011;59919;48.112;16.280;2023-05-10T04:47:45;2.20;;;2.00;;
71759;SDS011;59919;48.112;16.280;2023-05-10T04:50:16;2.53;;;2.15;;
71759;SDS011;59919;48.112;16.280;2023-05-10T04:52:47;2.30;;;2.10;;
71759;SDS011;59919;48.112;16.280;2023-05-10T04:55:19;3.50;;;1.77;;
71759;SDS011;59919;48.112;16.280;2023-05-10T04:57:50;3.20;;;2.17;;
71759;SDS011;59919;48.112;16.280;2023-05-10T05:00:21;2.53;;;2.33;;
71759;SDS011;59919;48.112;16.280;2023-05-10T05:02:57;2.55;;;2.03;;
71759;SDS011;59919;48.112;16.280;2023-05-10T05:05:31;2.08;;;1.88;;
71759;SDS011;59919;48.112;16.280;2023-05-10T05:08:02;2.17;;;1.90;;
71759;SDS011;59919;48.112;16.280;2023-05-10T05:10:34;2.80;;;2.40;;
71759;SDS011;59919;48.112;16.280;2023-05-10T05:13:06;2.55;;;2.25;;
71759;SDS011;59919;48.112;16.280;2023-05-10T05:15:39;2.30;;;2.10;;
71759;SDS011;59919;48.112;16.280;2023-05-10T05:18:11;2.47;;;2.00;;
71759;SDS011;59919;48.112;16.280;2023-05-10T05:20:45;2.00;;;1.80;;
71759;SDS011;59919;48.112;16.280;2023-05-10T05:23:19;2.33;;;2.13;;
71759;SDS011;59919;48.112;16.280;2023-05-10T05:25:55;2.72;;;2.22;;
71759;SDS011;59919;48.112;16.280;2023-05-10T05:28:27;2.45;;;2.00;;
71759;SDS011;59919;48.112;16.280;2023-05-10T05:31:05;3.22;;;2.08;;
71759;SDS011;59919;48.112;16.280;2023-05-10T05:33:38;2.55;;;2.10;;
71759;SDS011;59919;48.112;16.280;2023-05-10T05:36:09;2.38;;;2.17;;
71759;SDS011;59919;48.112;16.280;2023-05-10T05:38:40;2.40;;;2.20;;
71759;SDS011;59919;48.112;16.280;2023-05-10T05:41:12;2.22;;;2.00;;
71759;SDS011;59919;48.112;16.280;2023-05-10T05:43:45;2.15;;;1.80;;
71759;SDS011;59919;48.112;16.280;2023-05-10T05:46:16;2.40;;;1.98;;
71759;SDS011;59919;48.112;16.280;2023-05-10T05:48:47;2.65;;;2.15;;
71759;SDS011;59919;48.112;16.280;2023-05-10T05:51:18;2.30;;;2.00;;
71759;SDS011;59919;48.112;16.280;2023-05-10T05:53:52;2.90;;;2.13;;
71759;SDS011;59919;48.112;16.280;2023-05-10T05:56:23;3.38;;;2.35;;
71759;SDS011;59919;48.112;16.280;2023-05-10T05:59:02;2.67;;;2.28;;
71759;SDS011;59919;48.112;16.280;2023-05-10T06:01:35;2.08;;;1.88;;
71759;SDS011;59919;48.112;16.280;2023-05-10T06:04:07;2.75;;;2.20;;
71759;SDS011;59919;48.112;16.280;2023-05-10T06:06:38;2.25;;;2.03;;
71759;SDS011;59919;48.112;16.280;2023-05-10T06:09:12;2.83;;;2.40;;
71759;SDS011;59919;48.112;16.280;2023-05-10T06:11:46;2.90;;;2.33;;
71759;SDS011;59919;48.112;16.280;2023-05-10T06:14:17;3.17;;;2.22;;
71759;SDS011;59919;48.112;16.280;2023-05-10T06:16:53;2.40;;;2.20;;
71759;SDS011;59919;48.112;16.280;2023-05-10T06:19:27;3.03;;;2.13;;
71759;SDS011;59919;48.112;16.280;2023-05-10T06:21:58;1.67;;;1.55;;
71759;SDS011;59919;48.112;16.280;2023-05-10T06:24:29;1.60;;;1.50;;
71759;SDS011;59919;48.112;16.280;2023-05-10T06:27:00;1.40;;;1.23;;
71759;SDS011;59919;48.112;16.280;2023-05-10T06:29:34;1.77;;;1.40;;
71759;SDS011;59919;48.112;16.280;2023-05-10T06:32:08;2.80;;;1.90;;
71759;SDS011;59919;48.112;16.280;2023-05-10T06:34:42;2.00;;;1.73;;
71759;SDS011;59919;48.112;16.280;2023-05-10T06:37:18;2.08;;;1.70;;
71759;SDS011;59919;48.112;16.280;2023-05-10T06:39:51;4.15;;;1.55;;
71759;SDS011;59919;48.112;16.280;2023-05-10T06:42:22;3.22;;;1.67;;
71759;SDS011;59919;48.112;16.280;2023-05-10T06:44:58;2.03;;;1.80;;
71759;SDS011;59919;48.112;16.280;2023-05-10T06:47:29;1.70;;;1.60;;
71759;SDS011;59919;48.112;16.280;2023-05-10T06:50:01;2.20;;;1.70;;
71759;SDS011;59919;48.112;16.280;2023-05-10T06:52:32;1.95;;;1.65;;
71759;SDS011;59919;48.112;16.280;2023-05-10T06:55:03;2.42;;;1.77;;
71759;SDS011;59919;48.112;16.280;2023-05-10T06:57:38;2.35;;;2.00;;
71759;SDS011;59919;48.112;16.280;2023-05-10T07:00:09;2.83;;;1.60;;
71759;SDS011;59919;48.112;16.280;2023-05-10T07:02:40;4.00;;;1.67;;
71759;SDS011;59919;48.112;16.280;2023-05-10T07:05:14;2.20;;;1.85;;
71759;SDS011;59919;48.112;16.280;2023-05-10T07:07:45;3.05;;;1.65;;
71759;SDS011;59919;48.112;16.280;2023-05-10T07:10:19;2.55;;;1.60;;
71759;SDS011;59919;48.112;16.280;2023-05-10T07:12:50;2.85;;;2.05;;
71759;SDS011;59919;48.112;16.280;2023-05-10T07:15:24;3.42;;;1.70;;
71759;SDS011;59919;48.112;16.280;2023-05-10T07:17:55;4.32;;;2.10;;
71759;SDS011;59919;48.112;16.280;2023-05-10T07:20:26;4.00;;;1.90;;
71759;SDS011;59919;48.112;16.280;2023-05-10T07:22:59;3.15;;;1.95;;
71759;SDS011;59919;48.112;16.280;2023-05-10T07:25:30;2.10;;;1.80;;
71759;SDS011;59919;48.112;16.280;2023-05-10T07:28:07;4.20;;;1.80;;
71759;SDS011;59919;48.112;16.280;2023-05-10T07:30:38;6.07;;;2.42;;
71759;SDS011;59919;48.112;16.280;2023-05-10T07:33:09;6.00;;;1.88;;
71759;SDS011;59919;48.112;16.280;2023-05-10T07:35:49;5.72;;;2.15;;
71759;SDS011;59919;48.112;16.280;2023-05-10T07:38:20;4.25;;;2.00;;
71759;SDS011;59919;48.112;16.280;2023-05-10T07:40:51;3.45;;;2.05;;
71759;SDS011;59919;48.112;16.280;2023-05-10T07:43:27;5.70;;;1.70;;
71759;SDS011;59919;48.112;16.280;2023-05-10T07:45:58;4.80;;;1.75;;
71759;SDS011;59919;48.112;16.280;2023-05-10T07:48:30;3.75;;;2.17;;
71759;SDS011;59919;48.112;16.280;2023-05-10T07:51:02;3.63;;;1.83;;
71759;SDS011;59919;48.112;16.280;2023-05-10T07:53:37;3.13;;;1.60;;
71759;SDS011;59919;48.112;16.280;2023-05-10T07:56:25;5.10;;;1.80;;
71759;SDS011;59919;48.112;16.280;2023-05-10T07:59:00;3.85;;;1.90;;
71759;SDS011;59919;48.112;16.280;2023-05-10T08:01:37;2.42;;;1.88;;
71759;SDS011;59919;48.112;16.280;2023-05-10T08:04:08;3.15;;;1.85;;
71759;SDS011;59919;48.112;16.280;2023-05-10T08:06:42;3.97;;;2.08;;
71759;SDS011;59919;48.112;16.280;2023-05-10T08:09:13;2.65;;;1.63;;
71759;SDS011;59919;48.112;16.280;2023-05-10T08:11:44;4.60;;;1.70;;
71759;SDS011;59919;48.112;16.280;2023-05-10T08:14:15;3.33;;;1.73;;
71759;SDS011;59919;48.112;16.280;2023-05-10T08:16:48;3.17;;;1.50;;
71759;SDS011;59919;48.112;16.280;2023-05-10T08:19:19;4.25;;;1.70;;
71759;SDS011;59919;48.112;16.280;2023-05-10T08:21:53;2.42;;;1.77;;
71759;SDS011;59919;48.112;16.280;2023-05-10T08:24:28;3.45;;;1.80;;
71759;SDS011;59919;48.112;16.280;2023-05-10T08:26:59;3.10;;;1.63;;
71759;SDS011;59919;48.112;16.280;2023-05-10T08:29:30;2.40;;;1.73;;
71759;SDS011;59919;48.112;16.280;2023-05-10T08:32:04;2.50;;;1.60;;
71759;SDS011;59919;48.112;16.280;2023-05-10T08:34:38;1.80;;;1.48;;
71759;SDS011;59919;48.112;16.280;2023-05-10T08:37:12;1.85;;;1.67;;
71759;SDS011;59919;48.112;16.280;2023-05-10T08:39:43;2.20;;;1.75;;
71759;SDS011;59919;48.112;16.280;2023-05-10T08:42:19;2.63;;;1.90;;
71759;SDS011;59919;48.112;16.280;2023-05-10T08:44:53;2.30;;;1.80;;
71759;SDS011;59919;48.112;16.280;2023-05-10T08:47:25;2.50;;;1.80;;
71759;SDS011;59919;48.112;16.280;2023-05-10T08:49:56;2.40;;;1.75;;
71759;SDS011;59919;48.112;16.280;2023-05-10T08:52:30;2.72;;;1.55;;
71759;SDS011;59919;48.112;16.280;2023-05-10T08:55:03;4.22;;;1.90;;
71759;SDS011;59919;48.112;16.280;2023-05-10T08:57:35;3.15;;;1.60;;
71759;SDS011;59919;48.112;16.280;2023-05-10T09:00:07;2.40;;;1.75;;
71759;SDS011;59919;48.112;16.280;2023-05-10T09:02:42;2.17;;;1.48;;
71759;SDS011;59919;48.112;16.280;2023-05-10T09:05:17;4.57;;;1.65;;
71759;SDS011;59919;48.112;16.280;2023-05-10T09:07:50;2.10;;;1.55;;
71759;SDS011;59919;48.112;16.280;2023-05-10T09:10:21;2.30;;;1.55;;
71759;SDS011;59919;48.112;16.280;2023-05-10T09:12:57;2.30;;;1.90;;
71759;SDS011;59919;48.112;16.280;2023-05-10T09:15:29;2.25;;;1.65;;
71759;SDS011;59919;48.112;16.280;2023-05-10T09:18:03;2.38;;;1.60;;
71759;SDS011;59919;48.112;16.280;2023-05-10T09:20:35;2.85;;;1.40;;
71759;SDS011;59919;48.112;16.280;2023-05-10T09:23:08;1.85;;;1.65;;
71759;SDS011;59919;48.112;16.280;2023-05-10T09:25:47;1.65;;;1.50;;
71759;SDS011;59919;48.112;16.280;2023-05-10T09:28:33;2.53;;;1.57;;
71759;SDS011;59919;48.112;16.280;2023-05-10T09:31:20;4.53;;;1.73;;
71759;SDS011;59919;48.112;16.280;2023-05-10T09:33:51;2.80;;;1.65;;
71759;SDS011;59919;48.112;16.280;2023-05-10T09:36:25;2.03;;;1.70;;
71759;SDS011;59919;48.112;16.280;2023-05-10T09:38:56;1.70;;;1.60;;
71759;SDS011;59919;48.112;16.280;2023-05-10T09:41:28;1.92;;;1.48;;
71759;SDS011;59919;48.112;16.280;2023-05-10T09:43:59;1.73;;;1.58;;
71759;SDS011;59919;48.112;16.280;2023-05-10T09:46:34;3.05;;;1.77;;
71759;SDS011;59919;48.112;16.280;2023-05-10T09:49:06;1.50;;;1.40;;
71759;SDS011;59919;48.112;16.280;2023-05-10T09:51:40;1.67;;;1.50;;
71759;SDS011;59919;48.112;16.280;2023-05-10T09:54:12;1.52;;;1.38;;
71759;SDS011;59919;48.112;16.280;2023-05-10T09:56:45;1.83;;;1.63;;
71759;SDS011;59919;48.112;16.280;2023-05-10T09:59:16;1.85;;;1.40;;
71759;SDS011;59919;48.112;16.280;2023-05-10T10:01:52;2.05;;;1.50;;
71759;SDS011;59919;48.112;16.280;2023-05-10T10:04:25;2.57;;;1.70;;
71759;SDS011;59919;48.112;16.280;2023-05-10T10:07:05;1.92;;;1.50;;
71759;SDS011;59919;48.112;16.280;2023-05-10T10:09:37;2.53;;;1.40;;
71759;SDS011;59919;48.112;16.280;2023-05-10T10:12:09;1.70;;;1.60;;
71759;SDS011;59919;48.112;16.280;2023-05-10T10:14:40;2.22;;;1.30;;
71759;SDS011;59919;48.112;16.280;2023-05-10T10:17:14;2.00;;;1.50;;
71759;SDS011;59919;48.112;16.280;2023-05-10T10:19:53;1.50;;;1.40;;
71759;SDS011;59919;48.112;16.280;2023-05-10T10:22:28;1.90;;;1.20;;
71759;SDS011;59919;48.112;16.280;2023-05-10T10:25:01;1.70;;;1.50;;
71759;SDS011;59919;48.112;16.280;2023-05-10T10:27:36;2.33;;;1.77;;
71759;SDS011;59919;48.112;16.280;2023-05-10T10:30:16;1.75;;;1.50;;
71759;SDS011;59919;48.112;16.280;2023-05-10T10:36:02;2.17;;;1.40;;
71759;SDS011;59919;48.112;16.280;2023-05-10T10:38:53;1.45;;;1.35;;
71759;SDS011;59919;48.112;16.280;2023-05-10T10:41:31;1.80;;;1.35;;
71759;SDS011;59919;48.112;16.280;2023-05-10T10:52:35;2.05;;;1.50;;
71759;SDS011;59919;48.112;16.280;2023-05-10T10:55:13;1.13;;;1.02;;
71759;SDS011;59919;48.112;16.280;2023-05-10T10:57:49;2.05;;;1.50;;
71759;SDS011;59919;48.112;16.280;2023-05-10T11:00:26;2.13;;;1.50;;
71759;SDS011;59919;48.112;16.280;2023-05-10T11:03:05;1.98;;;1.48;;
71759;SDS011;59919;48.112;16.280;2023-05-10T11:05:38;1.58;;;1.27;;
71759;SDS011;59919;48.112;16.280;2023-05-10T11:11:06;2.28;;;1.20;;
71759;SDS011;59919;48.112;16.280;2023-05-10T11:16:20;1.50;;;1.30;;
71759;SDS011;59919;48.112;16.280;2023-05-10T11:19:07;1.20;;;1.10;;
71759;SDS011;59919;48.112;16.280;2023-05-10T11:21:47;2.55;;;1.35;;
71759;SDS011;59919;48.112;16.280;2023-05-10T11:24:36;1.40;;;1.25;;
71759;SDS011;59919;48.112;16.280;2023-05-10T11:27:09;1.60;;;1.50;;
71759;SDS011;59919;48.112;16.280;2023-05-10T11:29:44;2.00;;;1.20;;
71759;SDS011;59919;48.112;16.280;2023-05-10T11:32:18;3.92;;;1.50;;
71759;SDS011;59919;48.112;16.280;2023-05-10T11:34:52;1.73;;;1.10;;
71759;SDS011;59919;48.112;16.280;2023-05-10T11:37:28;1.50;;;1.40;;
71759;SDS011;59919;48.112;16.280;2023-05-10T11:40:05;1.60;;;1.50;;
71759;SDS011;59919;48.112;16.280;2023-05-10T11:42:37;1.25;;;1.10;;
71759;SDS011;59919;48.112;16.280;2023-05-10T11:45:08;2.33;;;1.15;;
71759;SDS011;59919;48.112;16.280;2023-05-10T11:47:42;1.73;;;1.20;;
71759;SDS011;59919;48.112;16.280;2023-05-10T11:50:14;1.30;;;1.20;;
71759;SDS011;59919;48.112;16.280;2023-05-10T11:52:56;3.50;;;1.30;;
71759;SDS011;59919;48.112;16.280;2023-05-10T11:55:29;1.08;;;1.00;;
71759;SDS011;59919;48.112;16.280;2023-05-10T11:58:03;2.90;;;1.40;;
71759;SDS011;59919;48.112;16.280;2023-05-10T12:00:35;1.10;;;1.00;;
71759;SDS011;59919;48.112;16.280;2023-05-10T12:03:06;2.33;;;1.15;;
71759;SDS011;59919;48.112;16.280;2023-05-10T12:05:37;6.75;;;1.40;;
71759;SDS011;59919;48.112;16.280;2023-05-10T12:08:15;1.40;;;1.30;;
71759;SDS011;59919;48.112;16.280;2023-05-10T12:10:53;2.00;;;1.30;;
71759;SDS011;59919;48.112;16.280;2023-05-10T12:13:38;1.88;;;1.15;;
71759;SDS011;59919;48.112;16.280;2023-05-10T12:16:19;2.42;;;1.05;;
71759;SDS011;59919;48.112;16.280;2023-05-10T12:18:52;2.38;;;1.10;;
71759;SDS011;59919;48.112;16.280;2023-05-10T12:21:27;1.42;;;1.13;;
71759;SDS011;59919;48.112;16.280;2023-05-10T12:24:01;1.80;;;1.20;;
71759;SDS011;59919;48.112;16.280;2023-05-10T12:26:36;3.42;;;1.40;;
71759;SDS011;59919;48.112;16.280;2023-05-10T12:29:15;2.47;;;1.27;;
71759;SDS011;59919;48.112;16.280;2023-05-10T12:34:33;1.88;;;1.50;;
71759;SDS011;59919;48.112;16.280;2023-05-10T12:37:06;1.67;;;1.30;;
71759;SDS011;59919;48.112;16.280;2023-05-10T12:39:41;2.50;;;1.10;;
71759;SDS011;59919;48.112;16.280;2023-05-10T12:42:17;2.25;;;1.30;;
71759;SDS011;59919;48.112;16.280;2023-05-10T12:44:49;2.50;;;1.33;;
71759;SDS011;59919;48.112;16.280;2023-05-10T12:47:27;2.53;;;1.42;;
71759;SDS011;59919;48.112;16.280;2023-05-10T12:50:00;3.45;;;1.38;;
71759;SDS011;59919;48.112;16.280;2023-05-10T12:52:33;1.58;;;1.13;;
71759;SDS011;59919;48.112;16.280;2023-05-10T12:55:05;2.67;;;1.25;;
71759;SDS011;59919;48.112;16.280;2023-05-10T12:57:39;1.70;;;1.30;;
71759;SDS011;59919;48.112;16.280;2023-05-10T13:00:10;2.97;;;1.50;;
71759;SDS011;59919;48.112;16.280;2023-05-10T13:02:45;3.80;;;1.30;;
71759;SDS011;59919;48.112;16.280;2023-05-10T13:05:16;1.48;;;1.30;;
71759;SDS011;59919;48.112;16.280;2023-05-10T13:07:49;2.88;;;1.40;;
71759;SDS011;59919;48.112;16.280;2023-05-10T13:10:20;3.50;;;1.58;;
71759;SDS011;59919;48.112;16.280;2023-05-10T13:12:53;2.70;;;1.55;;
71759;SDS011;59919;48.112;16.280;2023-05-10T13:15:25;2.35;;;1.40;;
71759;SDS011;59919;48.112;16.280;2023-05-10T13:17:58;1.45;;;1.35;;
71759;SDS011;59919;48.112;16.280;2023-05-10T13:20:30;1.80;;;1.30;;
71759;SDS011;59919;48.112;16.280;2023-05-10T13:23:01;1.30;;;1.20;;
71759;SDS011;59919;48.112;16.280;2023-05-10T13:28:11;2.63;;;1.48;;
71759;SDS011;59919;48.112;16.280;2023-05-10T13:30:42;1.23;;;1.13;;
71759;SDS011;59919;48.112;16.280;2023-05-10T13:33:13;5.22;;;1.45;;
71759;SDS011;59919;48.112;16.280;2023-05-10T13:35:44;1.90;;;1.38;;
71759;SDS011;59919;48.112;16.280;2023-05-10T13:38:18;1.50;;;1.23;;
71759;SDS011;59919;48.112;16.280;2023-05-10T13:40:49;1.88;;;1.30;;
71759;SDS011;59919;48.112;16.280;2023-05-10T13:43:25;2.53;;;1.38;;
71759;SDS011;59919;48.112;16.280;2023-05-10T13:45:59;2.28;;;1.20;;
71759;SDS011;59919;48.112;16.280;2023-05-10T13:48:33;2.28;;;1.20;;
71759;SDS011;59919;48.112;16.280;2023-05-10T13:51:04;2.03;;;1.50;;
71759;SDS011;59919;48.112;16.280;2023-05-10T13:53:35;1.70;;;1.30;;
71759;SDS011;59919;48.112;16.280;2023-05-10T13:56:07;2.85;;;1.40;;
71759;SDS011;59919;48.112;16.280;2023-05-10T13:58:43;1.40;;;1.30;;
71759;SDS011;59919;48.112;16.280;2023-05-10T14:01:18;1.60;;;1.42;;
71759;SDS011;59919;48.112;16.280;2023-05-10T14:03:54;1.85;;;1.40;;
71759;SDS011;59919;48.112;16.280;2023-05-10T14:06:28;1.70;;;1.40;;
71759;SDS011;59919;48.112;16.280;2023-05-10T14:08:59;2.33;;;1.60;;
71759;SDS011;59919;48.112;16.280;2023-05-10T14:11:31;2.03;;;1.50;;
71759;SDS011;59919;48.112;16.280;2023-05-10T14:14:02;2.60;;;2.33;;
71759;SDS011;59919;48.112;16.280;2023-05-10T14:19:15;1.83;;;1.25;;
71759;SDS011;59919;48.112;16.280;2023-05-10T14:21:52;2.60;;;1.50;;
71759;SDS011;59919;48.112;16.280;2023-05-10T14:24:23;1.58;;;1.48;;
71759;SDS011;59919;48.112;16.280;2023-05-10T14:26:56;1.90;;;1.70;;
71759;SDS011;59919;48.112;16.280;2023-05-10T14:29:28;1.92;;;1.40;;
71759;SDS011;59919;48.112;16.280;2023-05-10T14:31:59;1.58;;;1.30;;
71759;SDS011;59919;48.112;16.280;2023-05-10T14:34:33;2.05;;;1.23;;
71759;SDS011;59919;48.112;16.280;2023-05-10T14:37:06;1.27;;;1.13;;
71759;SDS011;59919;48.112;16.280;2023-05-10T14:39:38;2.10;;;1.63;;
71759;SDS011;59919;48.112;16.280;2023-05-10T14:42:13;2.40;;;1.30;;
71759;SDS011;59919;48.112;16.280;2023-05-10T14:44:44;2.58;;;2.03;;
71759;SDS011;59919;48.112;16.280;2023-05-10T14:47:19;2.40;;;1.45;;
71759;SDS011;59919;48.112;16.280;2023-05-10T14:49:56;2.20;;;1.42;;
71759;SDS011;59919;48.112;16.280;2023-05-10T14:52:27;1.85;;;1.65;;
71759;SDS011;59919;48.112;16.280;2023-05-10T14:54:58;2.15;;;1.40;;
71759;SDS011;59919;48.112;16.280;2023-05-10T14:57:31;2.63;;;1.20;;
71759;SDS011;59919;48.112;16.280;2023-05-10T15:00:04;2.05;;;1.50;;
71759;SDS011;59919;48.112;16.280;2023-05-10T15:02:36;1.58;;;1.27;;
71759;SDS011;59919;48.112;16.280;2023-05-10T15:05:11;1.27;;;1.13;;
71759;SDS011;59919;48.112;16.280;2023-05-10T15:07:47;1.45;;;1.33;;
71759;SDS011;59919;48.112;16.280;2023-05-10T15:10:18;1.25;;;1.05;;
71759;SDS011;59919;48.112;16.280;2023-05-10T15:12:50;1.42;;;1.17;;
71759;SDS011;59919;48.112;16.280;2023-05-10T15:15:21;2.13;;;1.25;;
71759;SDS011;59919;48.112;16.280;2023-05-10T15:17:52;3.63;;;1.55;;
71759;SDS011;59919;48.112;16.280;2023-05-10T15:20:25;2.58;;;1.25;;
71759;SDS011;59919;48.112;16.280;2023-05-10T15:22:56;2.50;;;1.50;;
71759;SDS011;59919;48.112;16.280;2023-05-10T15:25:27;2.15;;;1.45;;
71759;SDS011;59919;48.112;16.280;2023-05-10T15:27:59;2.63;;;1.45;;
71759;SDS011;59919;48.112;16.280;2023-05-10T15:30:30;2.67;;;1.40;;
71759;SDS011;59919;48.112;16.280;2023-05-10T15:33:04;2.70;;;1.60;;
71759;SDS011;59919;48.112;16.280;2023-05-10T15:35:39;1.45;;;1.35;;
71759;SDS011;59919;48.112;16.280;2023-05-10T15:38:10;2.22;;;1.38;;
71759;SDS011;59919;48.112;16.280;2023-05-10T15:40:41;2.53;;;1.35;;
71759;SDS011;59919;48.112;16.280;2023-05-10T15:43:12;2.72;;;1.60;;
71759;SDS011;59919;48.112;16.280;2023-05-10T15:45:51;2.28;;;1.38;;
71759;SDS011;59919;48.112;16.280;2023-05-10T15:48:23;2.15;;;1.20;;
71759;SDS011;59919;48.112;16.280;2023-05-10T15:50:54;1.30;;;1.13;;
71759;SDS011;59919;48.112;16.280;2023-05-10T15:53:29;2.55;;;1.60;;
71759;SDS011;59919;48.112;16.280;2023-05-10T15:56:03;2.60;;;1.40;;